Time;durP1;ratioP1;P1;durP2;ratioP2;P2;SDS_P1;SDS_P2;PMS_P1;PMS_P2;Temp;Humidity;BMP_temperature;BMP_pressure;BME280_temperature;BME280_humidity;BME280_pressure;Samples;Min_cycle;Max_cycle;Signal;HPM_P1;HPM_P2
2021/08/29 00:00:06;;;;;;;5.55;1.90;;;;;;;13.42;74.36;99587.61;1655433;84;20990;-53
2021/08/29 00:02:32;;;;;;;1.60;1.40;;;;;;;13.40;74.41;99584.61;1657881;84;21113;-54
2021/08/29 00:04:59;;;;;;;2.65;1.95;;;;;;;13.37;74.44;99582.95;1657998;84;20938;-53
2021/08/29 00:07:25;;;;;;;6.17;1.50;;;;;;;13.36;74.62;99600.14;1654122;84;21333;-53
2021/08/29 00:09:51;;;;;;;3.77;1.98;;;;;;;13.35;74.73;99603.84;1656014;84;21926;-53
2021/08/29 00:12:18;;;;;;;4.10;2.17;;;;;;;13.37;74.82;99615.88;1673535;83;21449;-53
2021/08/29 00:14:44;;;;;;;2.10;1.85;;;;;;;13.37;74.74;99614.53;1706427;82;21524;-54
2021/08/29 00:17:11;;;;;;;3.70;2.42;;;;;;;13.37;74.74;99604.58;1701924;82;21085;-53
2021/08/29 00:19:38;;;;;;;4.20;2.85;;;;;;;13.37;74.69;99607.29;1704747;82;20966;-54
2021/08/29 00:22:05;;;;;;;4.62;2.35;;;;;;;13.36;74.66;99606.90;1708760;82;20919;-53
2021/08/29 00:24:31;;;;;;;3.22;2.02;;;;;;;13.33;74.81;99598.13;1705281;82;21069;-54
2021/08/29 00:26:57;;;;;;;1.80;1.55;;;;;;;13.32;74.96;99601.31;1701945;82;21784;-53
2021/08/29 00:29:24;;;;;;;4.87;1.72;;;;;;;13.32;75.08;99601.31;1700041;82;21598;-53
2021/08/29 00:31:51;;;;;;;4.10;1.57;;;;;;;13.31;75.22;99587.41;1703870;82;21047;-53
2021/08/29 00:34:18;;;;;;;3.52;1.75;;;;;;;13.32;75.39;99568.88;1703697;82;20930;-53
2021/08/29 00:36:44;;;;;;;3.75;1.30;;;;;;;13.36;75.50;99571.75;1701306;82;21033;-53
2021/08/29 00:39:11;;;;;;;2.37;1.40;;;;;;;13.37;75.61;99578.91;1703084;82;21184;-53
2021/08/29 00:41:40;;;;;;;4.78;1.87;;;;;;;13.41;75.63;99587.70;1703445;82;21109;-53
2021/08/29 00:44:06;;;;;;;3.02;2.25;;;;;;;13.41;75.69;99599.88;1690053;81;21559;-53
2021/08/29 00:46:34;;;;;;;7.10;2.37;;;;;;;13.42;75.75;99587.61;1697337;83;21115;-53
2021/08/29 00:49:00;;;;;;;3.00;2.62;;;;;;;13.43;75.93;99597.95;1730076;81;21443;-53
2021/08/29 00:51:27;;;;;;;2.98;1.75;;;;;;;13.43;75.90;99589.36;1730747;81;21708;-53
2021/08/29 00:53:54;;;;;;;4.50;1.85;;;;;;;13.43;75.95;99587.14;1730621;81;21488;-54
2021/08/29 00:56:25;;;;;;;5.10;1.25;;;;;;;13.43;76.11;99584.43;1708337;81;21156;-53
2021/08/29 00:58:55;;;;;;;3.37;1.50;;;;;;;13.42;76.20;99576.80;1734277;81;20958;-53
2021/08/29 01:01:23;;;;;;;2.02;1.00;;;;;;;13.41;76.28;99573.70;1713391;81;20907;-53
2021/08/29 01:03:54;;;;;;;2.22;1.77;;;;;;;13.41;76.35;99574.19;1672918;83;21577;-53
2021/08/29 01:06:45;;;;;;;1.95;1.32;;;;;;;13.41;76.46;99571.00;1725742;81;21101;-53
2021/08/29 01:09:18;;;;;;;2.90;1.70;;;;;;;13.43;76.59;99573.62;1728340;81;21666;-53
2021/08/29 01:11:47;;;;;;;3.77;1.82;;;;;;;13.45;76.65;99573.88;1732099;81;21539;-53
2021/08/29 01:14:19;;;;;;;3.75;2.00;;;;;;;13.47;76.83;99581.42;1730514;81;21168;-53
2021/08/29 01:16:46;;;;;;;5.08;1.70;;;;;;;13.47;76.98;99580.07;1730003;81;21206;-53
2021/08/29 01:19:15;;;;;;;3.42;2.35;;;;;;;13.50;77.08;99594.77;1734693;81;20962;-53
2021/08/29 01:21:44;;;;;;;1.32;1.10;;;;;;;13.52;77.19;99594.67;1710084;81;21451;-53
2021/08/29 01:24:18;;;;;;;3.62;1.10;;;;;;;13.56;77.31;99601.61;1731820;81;21053;-53
2021/08/29 01:26:58;;;;;;;2.08;1.47;;;;;;;13.61;77.42;99598.13;1731437;81;21097;-54
2021/08/29 01:29:30;;;;;;;1.42;1.32;;;;;;;13.68;77.24;99586.45;1675830;83;21107;-53
2021/08/29 01:31:58;;;;;;;4.90;1.70;;;;;;;13.68;77.24;99586.45;1731413;81;21588;-53
2021/08/29 01:34:25;;;;;;;8.25;2.37;;;;;;;13.70;77.61;99577.25;1729826;81;21483;-53
2021/08/29 01:36:56;;;;;;;4.83;1.80;;;;;;;13.72;77.61;99571.75;1710970;81;21114;-53
2021/08/29 01:39:22;;;;;;;4.58;1.57;;;;;;;13.71;77.67;99583.05;1702049;81;21081;-53
2021/08/29 01:41:51;;;;;;;1.45;1.32;;;;;;;13.70;77.85;99579.96;1732804;81;21318;-53
2021/08/29 01:44:18;;;;;;;7.12;1.98;;;;;;;13.73;78.09;99573.02;1690105;82;21491;-53
2021/08/29 01:46:45;;;;;;;3.55;1.55;;;;;;;13.78;78.26;99580.86;1702576;82;21512;-53
2021/08/29 01:49:12;;;;;;;3.25;1.55;;;;;;;13.80;78.47;99577.06;1705495;82;21077;-53
2021/08/29 01:51:40;;;;;;;3.20;1.60;;;;;;;13.83;78.61;99565.18;1704633;82;21550;-53
2021/08/29 01:54:12;;;;;;;5.03;1.40;;;;;;;13.88;78.65;99565.26;1699151;82;21599;-53
2021/08/29 01:57:00;;;;;;;3.75;1.45;;;;;;;13.93;78.77;99571.74;1697290;82;21439;-53
2021/08/29 01:59:28;;;;;;;3.62;1.45;;;;;;;13.99;78.83;99569.50;1709842;82;20935;-53
2021/08/29 02:01:55;;;;;;;4.30;1.62;;;;;;;14.03;78.78;99572.89;1709476;82;20986;-53
2021/08/29 02:04:22;;;;;;;1.82;1.72;;;;;;;14.07;78.90;99583.88;1705402;82;21127;-53
2021/08/29 02:07:14;;;;;;;3.83;2.02;;;;;;;14.09;78.83;99583.30;1701926;82;21850;-53
2021/08/29 02:09:50;;;;;;;1.70;1.20;;;;;;;14.10;78.94;99589.11;1702748;82;21082;-53
2021/08/29 02:12:17;;;;;;;3.72;1.10;;;;;;;14.10;78.94;99589.11;1710654;82;20993;-53
2021/08/29 02:14:53;;;;;;;4.00;1.42;;;;;;;14.11;78.98;99585.92;1708260;82;21091;-53
2021/08/29 02:17:20;;;;;;;9.63;1.50;;;;;;;14.09;78.95;99580.60;1704693;82;21382;-53
2021/08/29 02:19:46;;;;;;;3.55;1.15;;;;;;;14.09;78.93;99568.91;1702531;82;21549;-53
2021/08/29 02:22:13;;;;;;;5.40;1.57;;;;;;;14.14;78.89;99563.56;1706785;82;21082;-53
2021/08/29 02:24:40;;;;;;;5.92;1.35;;;;;;;14.17;78.88;99567.91;1679115;82;21157;-53
2021/08/29 02:27:09;;;;;;;3.33;2.20;;;;;;;14.17;78.90;99565.20;1703575;82;21042;-53
2021/08/29 02:29:36;;;;;;;1.77;1.57;;;;;;;14.21;78.81;99568.08;1706975;82;20971;-53
2021/08/29 02:32:04;;;;;;;3.10;2.33;;;;;;;14.19;78.82;99572.27;1684367;82;21080;-53
2021/08/29 02:34:30;;;;;;;4.55;2.83;;;;;;;14.19;78.82;99572.27;1709513;82;20976;-53
2021/08/29 02:36:58;;;;;;;4.25;2.22;;;;;;;14.20;78.57;99590.73;1706021;82;20956;-53
2021/08/29 02:39:26;;;;;;;6.08;1.98;;;;;;;14.20;78.64;99588.03;1707260;82;20899;-53
2021/08/29 02:41:53;;;;;;;4.83;1.80;;;;;;;14.20;78.54;99587.55;1679440;82;20890;-53
2021/08/29 02:44:20;;;;;;;5.55;1.52;;;;;;;14.19;78.64;99584.45;1701624;82;21106;-53
2021/08/29 02:46:49;;;;;;;4.05;2.08;;;;;;;14.20;78.71;99580.77;1616936;83;21043;-53
2021/08/29 02:49:15;;;;;;;6.05;1.22;;;;;;;14.20;78.75;99587.55;1692010;83;20967;-53
2021/08/29 02:51:43;;;;;;;3.30;1.67;;;;;;;14.22;78.73;99588.77;1689679;83;20986;-53
2021/08/29 02:54:12;;;;;;;3.67;1.40;;;;;;;14.23;79.03;99587.32;1669774;84;21366;-53
2021/08/29 02:56:38;;;;;;;3.40;2.08;;;;;;;14.24;78.69;99580.94;1693906;83;21389;-53
2021/08/29 02:59:05;;;;;;;6.78;1.75;;;;;;;14.25;78.92;99574.56;1691662;83;20990;-53
2021/08/29 03:01:36;;;;;;;3.37;1.57;;;;;;;14.27;78.88;99579.39;1692170;83;20915;-53
2021/08/29 03:04:14;;;;;;;4.45;1.50;;;;;;;14.29;78.96;99567.95;1689302;83;21121;-53
2021/08/29 03:06:42;;;;;;;3.83;1.47;;;;;;;14.29;78.96;99567.95;1627654;86;21685;-53
2021/08/29 03:09:09;;;;;;;5.47;1.40;;;;;;;14.28;78.92;99572.14;1689329;83;21146;-53
2021/08/29 03:11:42;;;;;;;4.65;1.10;;;;;;;14.30;78.95;99570.18;1692442;83;21935;-53
2021/08/29 03:14:08;;;;;;;3.15;1.40;;;;;;;14.31;79.02;99570.08;1666549;84;21731;-53
2021/08/29 03:16:36;;;;;;;2.92;1.57;;;;;;;14.35;79.02;99574.83;1663590;83;21195;-53
2021/08/29 03:19:11;;;;;;;2.25;1.85;;;;;;;14.35;79.09;99574.34;1680472;83;21086;-53
2021/08/29 03:21:49;;;;;;;2.40;2.20;;;;;;;14.38;79.16;99571.89;1623171;85;22536;-53
2021/08/29 03:24:16;;;;;;;2.02;1.82;;;;;;;14.41;79.20;99566.80;1690751;83;21442;-53
2021/08/29 03:26:43;;;;;;;2.37;1.65;;;;;;;14.42;79.25;99569.89;1692470;83;21397;-53
2021/08/29 03:29:18;;;;;;;4.53;2.15;;;;;;;14.45;79.36;99565.64;1691642;83;21562;-53
2021/08/29 03:31:45;;;;;;;2.85;1.60;;;;;;;14.48;79.42;99566.77;1687776;83;21112;-55
2021/08/29 03:34:15;;;;;;;2.02;1.85;;;;;;;14.51;79.49;99566.57;1688455;83;21144;-53
2021/08/29 03:36:47;;;;;;;2.33;1.42;;;;;;;14.54;79.60;99561.83;1663388;84;21496;-53
2021/08/29 03:39:12;;;;;;;4.22;1.67;;;;;;;14.58;79.75;99553.86;1662719;83;21105;-53
2021/08/29 03:41:40;;;;;;;2.37;1.72;;;;;;;14.63;79.91;99551.70;1603600;86;21187;-53
2021/08/29 03:44:11;;;;;;;4.25;1.90;;;;;;;14.68;79.99;99554.98;1671403;82;21148;-53
2021/08/29 03:46:39;;;;;;;2.72;2.45;;;;;;;14.74;80.00;99545.55;1717871;82;21173;-60
2021/08/29 03:49:08;;;;;;;3.65;2.62;;;;;;;14.78;79.98;99548.45;1719342;82;21715;-53
2021/08/29 03:51:37;;;;;;;2.90;2.52;;;;;;;14.81;79.96;99542.80;1718572;82;20951;-53
2021/08/29 03:54:06;;;;;;;3.50;2.37;;;;;;;14.85;79.92;99547.53;1719839;82;21002;-53
2021/08/29 03:56:33;;;;;;;5.65;2.62;;;;;;;14.90;79.80;99534.52;1721615;82;21065;-52
2021/08/29 03:59:01;;;;;;;4.60;1.75;;;;;;;14.96;79.73;99532.28;1721616;82;21226;-52
2021/08/29 04:01:28;;;;;;;4.70;3.65;;;;;;;15.01;79.60;99525.17;1718740;82;21091;-52
2021/08/29 04:03:55;;;;;;;2.25;1.77;;;;;;;15.08;79.39;99520.56;1717323;82;21472;-52
2021/08/29 04:06:26;;;;;;;2.85;1.57;;;;;;;15.16;79.15;99509.17;1719941;82;21125;-52
2021/08/29 04:08:55;;;;;;;1.87;1.75;;;;;;;15.24;78.91;99512.69;1720453;82;20923;-52
2021/08/29 04:11:29;;;;;;;3.77;2.05;;;;;;;15.30;78.59;99506.86;1724895;80;21366;-52
2021/08/29 04:13:57;;;;;;;1.90;1.70;;;;;;;15.35;78.33;99512.80;1704134;82;21114;-52
2021/08/29 04:16:26;;;;;;;4.12;1.85;;;;;;;15.42;78.07;99515.45;1721627;82;21062;-52
2021/08/29 04:18:54;;;;;;;1.77;1.25;;;;;;;15.47;77.78;99515.52;1724062;82;21089;-52
2021/08/29 04:21:25;;;;;;;2.30;1.10;;;;;;;15.53;77.54;99512.84;1718088;82;21100;-52
2021/08/29 04:23:51;;;;;;;1.30;0.90;;;;;;;15.59;77.43;99512.42;1723929;82;21080;-51
2021/08/29 04:26:19;;;;;;;5.50;1.27;;;;;;;15.65;77.13;99509.26;1720782;82;22224;-51
2021/08/29 04:28:46;;;;;;;1.20;1.05;;;;;;;15.70;76.81;99512.52;1722339;82;21022;-53
2021/08/29 04:31:16;;;;;;;1.67;1.30;;;;;;;15.77;76.55;99521.08;1717704;82;21134;-52
2021/08/29 04:33:52;;;;;;;1.82;1.25;;;;;;;15.81;76.29;99523.95;1722411;82;20986;-52
2021/08/29 04:36:23;;;;;;;3.05;1.20;;;;;;;15.86;76.17;99523.11;1703360;82;20970;-52
2021/08/29 04:38:49;;;;;;;2.90;1.15;;;;;;;15.88;76.01;99522.03;1724515;81;20970;-52
2021/08/29 04:41:18;;;;;;;0.90;0.80;;;;;;;15.93;75.93;99512.66;1719949;82;21041;-52
2021/08/29 04:43:44;;;;;;;2.12;1.00;;;;;;;15.96;75.79;99497.03;1720809;82;21092;-52
2021/08/29 04:46:14;;;;;;;1.10;0.80;;;;;;;16.02;75.65;99484.35;1720520;82;21048;-52
2021/08/29 04:48:42;;;;;;;2.27;0.88;;;;;;;16.08;75.45;99502.02;1719970;82;21578;-52
2021/08/29 04:51:08;;;;;;;1.10;1.00;;;;;;;16.12;75.27;99492.19;1722855;82;21058;-52
2021/08/29 04:53:37;;;;;;;2.40;1.25;;;;;;;16.16;75.10;99488.77;1720137;82;21073;-52
2021/08/29 04:56:04;;;;;;;1.62;1.00;;;;;;;16.19;74.92;99494.81;1722945;82;21037;-52
2021/08/29 04:58:32;;;;;;;1.07;0.93;;;;;;;16.23;74.81;99499.54;1701206;82;21014;-52
2021/08/29 05:00:59;;;;;;;3.55;1.05;;;;;;;16.24;74.81;99487.70;1722784;82;21199;-52
2021/08/29 05:03:25;;;;;;;2.90;0.70;;;;;;;16.29;74.68;99490.92;1707048;82;21011;-52
2021/08/29 05:05:52;;;;;;;1.00;0.90;;;;;;;16.33;74.56;99494.28;1720249;82;21046;-52
2021/08/29 05:08:18;;;;;;;2.45;1.00;;;;;;;16.38;74.41;99490.70;1722280;82;21544;-52
2021/08/29 05:10:46;;;;;;;2.90;0.80;;;;;;;16.44;74.35;99496.53;1687051;82;22430;-52
2021/08/29 05:13:13;;;;;;;0.80;0.70;;;;;;;16.49;74.17;99494.35;1724320;82;22612;-53
2021/08/29 05:15:42;;;;;;;2.70;0.90;;;;;;;16.54;74.11;99487.19;1721374;82;21101;-52
2021/08/29 05:18:08;;;;;;;0.90;0.70;;;;;;;16.57;73.80;99483.77;1722064;82;21135;-52
2021/08/29 05:20:37;;;;;;;0.68;0.68;;;;;;;16.61;73.39;99494.78;1724279;82;21090;-52
2021/08/29 05:23:21;;;;;;;1.32;0.57;;;;;;;16.65;73.18;99489.99;1720506;82;21096;-53
2021/08/29 05:26:00;;;;;;;0.72;0.50;;;;;;;16.71;73.14;99490.00;1720878;82;21703;-52
2021/08/29 05:28:26;;;;;;;1.10;0.57;;;;;;;16.77;73.12;99486.30;1718849;82;21551;-52
2021/08/29 05:30:53;;;;;;;0.60;0.50;;;;;;;16.82;73.11;99472.38;1724084;82;20861;-52
2021/08/29 05:33:19;;;;;;;0.70;0.60;;;;;;;16.89;72.70;99469.05;1729658;82;21034;-52
2021/08/29 05:35:46;;;;;;;2.47;0.70;;;;;;;16.95;72.54;99475.36;1720714;82;20968;-52
2021/08/29 05:38:12;;;;;;;1.60;0.70;;;;;;;17.02;72.27;99476.59;1725694;82;22546;-52
2021/08/29 05:40:49;;;;;;;1.72;0.50;;;;;;;17.14;71.94;99476.63;1721537;82;20946;-51
2021/08/29 05:43:34;;;;;;;2.92;0.60;;;;;;;17.25;71.66;99466.63;1671777;84;20936;-51
2021/08/29 05:46:01;;;;;;;1.50;0.70;;;;;;;17.38;71.02;99464.64;1700188;82;21031;-51
2021/08/29 05:48:27;;;;;;;1.87;0.50;;;;;;;17.49;70.54;99454.75;1719012;82;21074;-52
2021/08/29 05:50:54;;;;;;;0.98;0.40;;;;;;;17.58;70.24;99460.80;1659660;84;22748;-52
2021/08/29 05:53:20;;;;;;;1.02;0.50;;;;;;;17.68;69.84;99464.55;1720713;82;21737;-52
2021/08/29 05:55:49;;;;;;;4.03;0.60;;;;;;;17.77;69.67;99461.07;1720680;82;21050;-52
2021/08/29 05:58:15;;;;;;;2.90;0.50;;;;;;;17.87;69.41;99457.93;1690572;83;21083;-52
2021/08/29 06:00:43;;;;;;;2.35;0.60;;;;;;;17.96;68.67;99463.11;1722904;82;22346;-52
2021/08/29 06:03:09;;;;;;;3.02;0.53;;;;;;;18.04;67.83;99454.67;1659789;83;21138;-51
2021/08/29 06:05:36;;;;;;;1.27;0.47;;;;;;;18.11;67.11;99454.55;1721878;82;21094;-52
2021/08/29 06:08:05;;;;;;;1.40;0.53;;;;;;;18.15;66.58;99447.84;1725273;82;21034;-53
2021/08/29 06:10:32;;;;;;;0.88;0.42;;;;;;;18.21;66.42;99441.49;1701034;82;21063;-53
2021/08/29 06:13:01;;;;;;;2.27;0.40;;;;;;;18.21;66.05;99434.19;1722046;82;21598;-52
2021/08/29 06:15:29;;;;;;;2.15;0.37;;;;;;;18.22;65.84;99430.47;1718998;82;21289;-52
2021/08/29 06:17:56;;;;;;;0.60;0.30;;;;;;;18.26;65.71;99422.91;1724478;82;21125;-52
2021/08/29 06:20:22;;;;;;;0.60;0.33;;;;;;;18.30;65.69;99435.27;1717487;82;21587;-52
2021/08/29 06:22:50;;;;;;;2.35;0.50;;;;;;;18.33;65.57;99430.44;1717642;82;21413;-52
2021/08/29 06:25:31;;;;;;;2.30;0.62;;;;;;;18.37;65.68;99436.50;1628662;84;21662;-52
2021/08/29 06:28:16;;;;;;;1.57;0.60;;;;;;;18.40;65.44;99434.36;1722531;82;21464;-52
2021/08/29 06:30:44;;;;;;;0.95;0.50;;;;;;;18.40;64.99;99433.00;1627795;84;21089;-52
2021/08/29 06:33:29;;;;;;;0.60;0.50;;;;;;;18.38;64.72;99423.21;1719460;82;21068;-52
2021/08/29 06:35:58;;;;;;;1.35;0.60;;;;;;;18.36;64.55;99421.14;1720744;81;21577;-52
2021/08/29 06:38:25;;;;;;;1.30;0.50;;;;;;;18.33;64.44;99422.27;1721098;82;21140;-52
2021/08/29 06:40:51;;;;;;;1.98;0.40;;;;;;;18.29;64.56;99422.67;1722721;82;21587;-52
2021/08/29 06:43:18;;;;;;;3.72;1.12;;;;;;;18.26;64.28;99425.64;1719209;82;21065;-52
2021/08/29 06:45:56;;;;;;;1.95;0.50;;;;;;;18.23;64.14;99421.30;1722617;82;21411;-52
2021/08/29 06:48:41;;;;;;;1.75;0.40;;;;;;;18.22;64.22;99422.80;1720598;81;21492;-51
2021/08/29 06:51:10;;;;;;;2.05;0.40;;;;;;;18.23;64.13;99422.67;1718180;82;21106;-52
2021/08/29 06:53:54;;;;;;;4.00;0.75;;;;;;;18.25;64.24;99419.82;1726544;81;21140;-53
2021/08/29 06:56:25;;;;;;;1.35;0.70;;;;;;;18.27;64.02;99416.48;1675326;82;21043;-52
2021/08/29 06:59:06;;;;;;;4.15;0.50;;;;;;;18.27;64.03;99410.53;1721570;82;21065;-53
2021/08/29 07:01:32;;;;;;;2.30;0.50;;;;;;;18.29;63.76;99407.16;1720624;82;21122;-52
2021/08/29 07:03:59;;;;;;;0.88;0.50;;;;;;;18.31;63.63;99401.08;1719538;81;21058;-52
2021/08/29 07:06:25;;;;;;;2.05;0.50;;;;;;;18.29;63.37;99395.42;1722913;82;21209;-52
2021/08/29 07:09:10;;;;;;;1.25;0.50;;;;;;;18.28;63.20;99395.05;1719948;82;21096;-52
2021/08/29 07:11:37;;;;;;;0.60;0.50;;;;;;;18.25;62.79;99407.06;1722670;82;21078;-52
2021/08/29 07:14:14;;;;;;;0.80;0.60;;;;;;;18.23;62.89;99410.91;1658282;84;21126;-52
2021/08/29 07:16:41;;;;;;;2.87;0.60;;;;;;;18.22;62.95;99403.72;1722584;82;21054;-52
2021/08/29 07:19:08;;;;;;;0.70;0.40;;;;;;;18.21;63.25;99411.03;1718187;81;21138;-52
2021/08/29 07:21:48;;;;;;;1.50;0.80;;;;;;;18.21;63.40;99408.80;1653169;82;21065;-51
2021/08/29 07:24:33;;;;;;;1.87;0.47;;;;;;;18.23;63.72;99404.09;1718686;82;21061;-53
2021/08/29 07:27:18;;;;;;;1.30;0.45;;;;;;;18.23;63.36;99400.88;1717860;82;21061;-51
2021/08/29 07:30:03;;;;;;;0.82;0.60;;;;;;;18.26;63.41;99395.17;1724034;81;21709;-52
2021/08/29 07:32:37;;;;;;;0.65;0.50;;;;;;;18.29;63.49;99389.44;1721445;82;21112;-52
2021/08/29 07:35:06;;;;;;;0.50;0.50;;;;;;;18.33;63.60;99388.20;1718303;82;21133;-53
2021/08/29 07:37:32;;;;;;;0.85;0.45;;;;;;;18.38;63.49;99380.98;1721141;82;21026;-53
2021/08/29 07:39:59;;;;;;;0.90;0.62;;;;;;;18.41;63.57;99370.69;1719039;82;21042;-53
2021/08/29 07:42:26;;;;;;;0.78;0.60;;;;;;;18.47;63.71;99363.84;1700347;82;21070;-53
2021/08/29 07:44:53;;;;;;;0.60;0.50;;;;;;;18.55;63.53;99361.30;1724124;81;21745;-53
2021/08/29 07:47:21;;;;;;;2.05;0.45;;;;;;;18.63;63.29;99359.34;1722399;81;21136;-53
2021/08/29 07:49:48;;;;;;;0.60;0.50;;;;;;;18.75;62.98;99360.97;1684073;83;21219;-53
2021/08/29 07:52:14;;;;;;;2.65;0.50;;;;;;;18.89;62.96;99359.23;1717473;81;21097;-53
2021/08/29 07:54:59;;;;;;;0.75;0.50;;;;;;;19.08;62.74;99362.06;1716530;81;21082;-53
2021/08/29 07:57:27;;;;;;;2.00;0.50;;;;;;;19.27;61.79;99357.19;1712407;81;21117;-53
2021/08/29 07:59:55;;;;;;;1.15;0.70;;;;;;;19.45;61.42;99350.06;1722474;81;21011;-53
2021/08/29 08:02:21;;;;;;;1.57;0.60;;;;;;;19.63;61.16;99350.28;1722232;81;21117;-54
2021/08/29 08:05:07;;;;;;;1.22;0.53;;;;;;;19.78;60.92;99346.64;1717177;81;22300;-52
2021/08/29 08:07:54;;;;;;;1.22;0.60;;;;;;;19.91;60.43;99343.98;1720040;81;21065;-52
2021/08/29 08:10:31;;;;;;;0.60;0.50;;;;;;;20.02;58.76;99337.52;1717784;81;22030;-52
2021/08/29 08:13:15;;;;;;;1.00;0.60;;;;;;;20.04;58.09;99331.42;1718332;81;20931;-52
2021/08/29 08:15:42;;;;;;;0.55;0.53;;;;;;;20.09;58.36;99332.34;1720236;81;20947;-53
2021/08/29 08:18:09;;;;;;;0.80;0.60;;;;;;;20.15;57.94;99333.14;1723398;81;20910;-52
2021/08/29 08:20:35;;;;;;;3.70;0.40;;;;;;;20.22;57.94;99332.42;1720713;81;20983;-53
2021/08/29 08:23:03;;;;;;;1.42;0.50;;;;;;;20.30;57.79;99316.66;1706924;81;20939;-52
2021/08/29 08:25:48;;;;;;;3.02;0.62;;;;;;;20.38;56.94;99325.89;1723858;81;21011;-52
2021/08/29 08:28:34;;;;;;;0.60;0.50;;;;;;;20.43;56.93;99323.20;1721224;81;20958;-52
2021/08/29 08:31:20;;;;;;;0.62;0.50;;;;;;;20.45;56.74;99323.92;1687417;83;21117;-52
2021/08/29 08:33:48;;;;;;;2.08;0.50;;;;;;;20.47;56.91;99320.55;1688592;83;21359;-51
2021/08/29 08:36:16;;;;;;;5.25;0.50;;;;;;;20.51;56.69;99304.19;1698647;81;21115;-52
2021/08/29 08:38:50;;;;;;;1.12;0.50;;;;;;;20.61;56.65;99303.16;1715245;81;21134;-52
2021/08/29 08:41:19;;;;;;;2.58;0.50;;;;;;;20.71;56.29;99300.41;1677991;81;21359;-52
2021/08/29 08:44:04;;;;;;;1.95;0.47;;;;;;;20.81;55.47;99296.27;1716633;81;21717;-52
2021/08/29 08:46:35;;;;;;;3.72;0.50;;;;;;;20.91;55.42;99290.26;1641992;81;21582;-51
2021/08/29 08:49:20;;;;;;;0.50;0.50;;;;;;;20.96;55.87;99285.19;1732074;81;21446;-53
2021/08/29 08:52:11;;;;;;;2.20;0.50;;;;;;;21.04;55.07;99277.08;1727667;81;21101;-51
2021/08/29 08:55:00;;;;;;;3.33;0.50;;;;;;;21.08;55.14;99279.88;1730523;81;21065;-52
2021/08/29 08:57:28;;;;;;;5.30;0.68;;;;;;;21.12;55.53;99268.47;1690717;83;21117;-52
2021/08/29 09:00:12;;;;;;;6.92;0.68;;;;;;;21.19;55.51;99261.04;1723524;81;21086;-52
2021/08/29 09:02:56;;;;;;;1.75;0.70;;;;;;;21.27;55.75;99257.03;1730341;81;21102;-52
2021/08/29 09:05:38;;;;;;;4.05;0.60;;;;;;;21.33;55.85;99257.80;1726503;81;22381;-51
2021/08/29 09:08:09;;;;;;;2.58;0.65;;;;;;;21.35;55.55;99261.25;1707429;81;21119;-52
2021/08/29 09:10:35;;;;;;;0.90;0.70;;;;;;;21.38;55.70;99260.92;1730107;81;21805;-51
2021/08/29 09:13:05;;;;;;;3.17;0.60;;;;;;;21.39;55.75;99257.17;1730076;81;21455;-52
2021/08/29 09:15:33;;;;;;;2.87;0.70;;;;;;;21.40;55.52;99247.95;1735122;81;21444;-52
2021/08/29 09:18:00;;;;;;;1.17;0.70;;;;;;;21.39;55.84;99248.97;1731522;81;22350;-52
2021/08/29 09:20:38;;;;;;;1.62;0.70;;;;;;;21.37;55.93;99250.98;1731789;81;21491;-52
2021/08/29 09:23:11;;;;;;;1.65;0.70;;;;;;;21.35;55.91;99239.36;1731874;81;21014;-51
2021/08/29 09:25:44;;;;;;;1.10;0.70;;;;;;;21.33;56.09;99242.23;1733900;81;20982;-52
2021/08/29 09:28:16;;;;;;;4.05;0.62;;;;;;;21.32;56.22;99241.88;1682644;81;21109;-51
2021/08/29 09:30:46;;;;;;;2.10;0.70;;;;;;;21.32;56.66;99234.17;1732251;81;21507;-52
2021/08/29 09:33:12;;;;;;;1.10;0.80;;;;;;;21.34;57.13;99234.38;1706343;81;21093;-52
2021/08/29 09:35:39;;;;;;;1.12;0.60;;;;;;;21.39;57.46;99221.59;1731080;81;21467;-52
2021/08/29 09:40:55;;;;;;;0.70;0.70;;;;;;;21.56;57.57;99215.25;1865825;75;28273;-51
2021/08/29 09:43:36;;;;;;;;;;;;;;;21.57;57.62;99216.98;1835243;77;21033;-51
2021/08/29 09:46:07;;;;;;;2.87;1.45;;;;;;;21.62;57.83;99212.39;1835946;77;21217;-52
2021/08/29 09:48:55;;;;;;;4.25;2.02;;;;;;;21.67;57.90;99210.92;1836191;77;21349;-54
2021/08/29 09:51:24;;;;;;;1.70;1.00;;;;;;;21.75;57.88;99203.28;1832271;77;21077;-54
2021/08/29 09:53:52;;;;;;;4.75;1.12;;;;;;;21.80;57.44;99196.80;1833539;77;21111;-53
2021/08/29 09:56:27;;;;;;;1.72;0.78;;;;;;;21.83;57.78;99191.02;1831676;77;21010;-54
2021/08/29 09:59:09;;;;;;;2.52;1.07;;;;;;;21.92;57.93;99189.20;1766179;78;22218;-53
2021/08/29 10:01:38;;;;;;;1.35;1.12;;;;;;;22.00;57.92;99183.82;1807258;77;21098;-53
2021/08/29 10:04:18;;;;;;;5.33;2.02;;;;;;;22.07;57.61;99182.16;1837819;77;21028;-54
2021/08/29 10:06:46;;;;;;;3.58;1.60;;;;;;;22.12;57.72;99177.90;1795897;78;21100;-54
2021/08/29 10:09:14;;;;;;;1.45;1.00;;;;;;;22.19;57.43;99179.00;1743291;79;21096;-54
2021/08/29 10:11:42;;;;;;;1.15;0.90;;;;;;;22.25;57.32;99178.86;1700091;79;21677;-53
2021/08/29 10:14:09;;;;;;;1.02;0.70;;;;;;;22.31;57.47;99174.09;1770736;78;21077;-54
2021/08/29 10:16:37;;;;;;;0.90;0.72;;;;;;;22.36;57.16;99165.39;1722132;79;21468;-54
2021/08/29 10:19:22;;;;;;;0.85;0.75;;;;;;;22.42;57.05;99161.98;1769874;79;21091;-54
2021/08/29 10:22:00;;;;;;;2.87;0.80;;;;;;;22.50;57.19;99156.55;1739120;79;21517;-53
2021/08/29 10:24:34;;;;;;;1.52;1.00;;;;;;;22.57;57.01;99153.48;1769438;79;21561;-54
2021/08/29 10:27:06;;;;;;;3.72;0.80;;;;;;;22.62;56.95;99160.22;1770219;79;21080;-53
2021/08/29 10:29:51;;;;;;;1.50;0.98;;;;;;;22.70;56.63;99154.41;1803007;78;21420;-54
2021/08/29 10:32:38;;;;;;;;;;;;;;;22.76;56.60;99153.27;1786666;78;20966;-54
2021/08/29 10:35:23;;;;;;;3.50;0.85;;;;;;;22.85;56.64;99154.16;1775451;78;20154;-53
2021/08/29 10:37:51;;;;;;;4.87;0.80;;;;;;;22.91;56.36;99149.36;1778163;78;21148;-54
2021/08/29 10:40:36;;;;;;;1.15;0.90;;;;;;;22.96;56.06;99153.34;1776442;78;21084;-53
2021/08/29 10:43:08;;;;;;;3.25;1.02;;;;;;;23.02;55.89;99143.58;1763263;78;21070;-54
2021/08/29 10:45:48;;;;;;;1.50;0.90;;;;;;;23.07;55.75;99142.55;1710278;78;21333;-53
2021/08/29 10:48:29;;;;;;;3.62;0.90;;;;;;;23.13;55.60;99143.78;1732294;78;21030;-53
2021/08/29 10:51:00;;;;;;;0.90;0.90;;;;;;;23.18;55.40;99145.48;1777551;78;21354;-54
2021/08/29 10:53:37;;;;;;;2.40;1.00;;;;;;;23.21;55.18;99142.42;1745238;80;20902;-54
2021/08/29 10:56:20;;;;;;;5.22;1.40;;;;;;;23.24;55.38;99136.05;1782721;78;21877;-54
2021/08/29 11:01:48;;;;;;;2.98;1.32;;;;;;;23.30;55.37;99121.67;1788085;78;22574;-52
2021/08/29 11:04:36;;;;;;;1.90;1.10;;;;;;;23.27;55.30;99115.14;1714611;79;21385;-51
2021/08/29 11:07:43;;;;;;;;;;;;;;;23.27;55.47;99117.02;1766558;79;21708;-52
2021/08/29 11:10:16;;;;;;;2.95;1.00;;;;;;;23.28;55.51;99109.13;1750581;80;20508;-54
2021/08/29 11:12:43;;;;;;;1.67;1.30;;;;;;;23.28;55.43;99103.13;1763859;78;20883;-54
2021/08/29 11:15:14;;;;;;;1.85;1.05;;;;;;;23.31;55.54;99105.52;1765776;79;20924;-53
2021/08/29 11:17:43;;;;;;;4.10;1.42;;;;;;;23.33;55.38;99098.48;1766887;79;21484;-53
2021/08/29 11:20:13;;;;;;;4.50;1.30;;;;;;;23.35;55.54;99101.92;1744057;80;22182;-54
2021/08/29 11:22:52;;;;;;;1.65;1.00;;;;;;;23.39;55.64;99100.02;1768514;79;20977;-53
2021/08/29 11:25:37;;;;;;;3.05;1.10;;;;;;;23.43;55.60;99099.18;1766778;79;20882;-54
2021/08/29 11:28:20;;;;;;;2.65;1.00;;;;;;;23.49;55.58;99094.39;1672063;83;21400;-55
2021/08/29 11:31:04;;;;;;;2.58;1.20;;;;;;;23.60;55.84;99097.33;1761085;79;21089;-54
2021/08/29 11:33:34;;;;;;;1.75;1.20;;;;;;;23.69;55.55;99093.03;1745150;80;20962;-54
2021/08/29 11:36:11;;;;;;;1.25;1.10;;;;;;;23.78;55.78;99092.50;1742634;80;21097;-53
2021/08/29 11:38:51;;;;;;;1.50;1.35;;;;;;;23.89;55.54;99087.17;1745054;80;21081;-54
2021/08/29 11:41:17;;;;;;;2.05;1.10;;;;;;;23.97;55.53;99083.03;1714752;80;21081;-55
2021/08/29 11:43:48;;;;;;;1.32;1.12;;;;;;;24.02;55.34;99091.08;1742556;80;21097;-54
2021/08/29 11:46:18;;;;;;;1.35;1.20;;;;;;;24.09;55.02;99078.34;1713327;80;21807;-54
2021/08/29 11:48:58;;;;;;;2.65;1.30;;;;;;;24.13;55.02;99078.86;1728533;80;21511;-54
2021/08/29 11:51:32;;;;;;;3.15;1.37;;;;;;;24.16;54.89;99081.78;1747763;80;22154;-54
2021/08/29 11:54:02;;;;;;;4.15;1.80;;;;;;;24.17;54.94;99071.95;1743525;80;21123;-54
2021/08/29 11:56:31;;;;;;;5.97;1.10;;;;;;;24.18;55.02;99075.05;1717216;81;21542;-54
2021/08/29 11:59:02;;;;;;;1.52;1.42;;;;;;;24.20;55.09;99061.13;1713139;81;21714;-54